sensor_id;sensor_type;location;lat;lon;timestamp;temperature;humidity
49242;DHT22;35079;52.704;13.814;2023-07-31T00:00:29;15.00;99.90
49242;DHT22;35079;52.704;13.814;2023-07-31T00:02:55;15.10;99.90
49242;DHT22;35079;52.704;13.814;2023-07-31T00:05:21;15.10;99.90
49242;DHT22;35079;52.704;13.814;2023-07-31T00:07:50;15.20;99.90
49242;DHT22;35079;52.704;13.814;2023-07-31T00:10:16;15.10;99.90
49242;DHT22;35079;52.704;13.814;2023-07-31T00:12:43;15.10;99.90
49242;DHT22;35079;52.704;13.814;2023-07-31T00:15:09;15.10;99.90
49242;DHT22;35079;52.704;13.814;2023-07-31T00:17:35;15.10;99.90
49242;DHT22;35079;52.704;13.814;2023-07-31T00:20:01;15.10;99.90
49242;DHT22;35079;52.704;13.814;2023-07-31T00:22:27;15.20;99.90
49242;DHT22;35079;52.704;13.814;2023-07-31T00:24:53;15.30;99.90
49242;DHT22;35079;52.704;13.814;2023-07-31T00:27:18;15.20;99.90
49242;DHT22;35079;52.704;13.814;2023-07-31T00:29:44;15.10;99.90
49242;DHT22;35079;52.704;13.814;2023-07-31T00:32:09;15.10;99.90
49242;DHT22;35079;52.704;13.814;2023-07-31T00:34:35;15.00;99.90
49242;DHT22;35079;52.704;13.814;2023-07-31T00:37:01;15.00;99.90
49242;DHT22;35079;52.704;13.814;2023-07-31T00:39:26;14.90;99.90
49242;DHT22;35079;52.704;13.814;2023-07-31T00:41:52;14.90;99.90
49242;DHT22;35079;52.704;13.814;2023-07-31T00:44:18;14.80;99.90
49242;DHT22;35079;52.704;13.814;2023-07-31T00:46:44;14.80;99.90
49242;DHT22;35079;52.704;13.814;2023-07-31T00:49:10;14.80;99.90
49242;DHT22;35079;52.704;13.814;2023-07-31T00:51:36;14.70;99.90
49242;DHT22;35079;52.704;13.814;2023-07-31T00:54:02;14.70;99.90
49242;DHT22;35079;52.704;13.814;2023-07-31T00:56:28;14.70;99.90
49242;DHT22;35079;52.704;13.814;2023-07-31T00:58:55;14.70;99.90
49242;DHT22;35079;52.704;13.814;2023-07-31T01:01:21;14.60;99.90
49242;DHT22;35079;52.704;13.814;2023-07-31T01:03:47;14.70;99.90
49242;DHT22;35079;52.704;13.814;2023-07-31T01:12:03;14.50;99.90
49242;DHT22;35079;52.704;13.814;2023-07-31T01:14:29;14.40;99.90
49242;DHT22;35079;52.704;13.814;2023-07-31T01:16:55;14.40;99.90
49242;DHT22;35079;52.704;13.814;2023-07-31T01:19:25;14.40;99.90
49242;DHT22;35079;52.704;13.814;2023-07-31T01:22:09;14.30;99.90
49242;DHT22;35079;52.704;13.814;2023-07-31T01:27:30;14.30;99.90
49242;DHT22;35079;52.704;13.814;2023-07-31T01:30:05;14.40;99.90
49242;DHT22;35079;52.704;13.814;2023-07-31T01:32:38;14.40;99.90
49242;DHT22;35079;52.704;13.814;2023-07-31T01:35:05;14.30;99.90
49242;DHT22;35079;52.704;13.814;2023-07-31T01:37:31;14.40;99.90
49242;DHT22;35079;52.704;13.814;2023-07-31T01:39:57;14.50;99.90
49242;DHT22;35079;52.704;13.814;2023-07-31T01:42:22;14.50;99.90
49242;DHT22;35079;52.704;13.814;2023-07-31T01:44:48;14.60;99.90
49242;DHT22;35079;52.704;13.814;2023-07-31T01:47:14;14.50;99.90
49242;DHT22;35079;52.704;13.814;2023-07-31T01:49:39;14.50;99.90
49242;DHT22;35079;52.704;13.814;2023-07-31T01:52:05;14.60;99.90
49242;DHT22;35079;52.704;13.814;2023-07-31T01:54:31;14.60;99.90
49242;DHT22;35079;52.704;13.814;2023-07-31T01:56:56;14.80;99.90
49242;DHT22;35079;52.704;13.814;2023-07-31T01:59:22;14.80;99.90
49242;DHT22;35079;52.704;13.814;2023-07-31T02:01:48;14.70;99.90
49242;DHT22;35079;52.704;13.814;2023-07-31T02:04:13;14.80;99.90
49242;DHT22;35079;52.704;13.814;2023-07-31T02:06:39;14.80;99.90
49242;DHT22;35079;52.704;13.814;2023-07-31T02:09:04;14.80;99.90
49242;DHT22;35079;52.704;13.814;2023-07-31T02:11:30;14.90;99.90
49242;DHT22;35079;52.704;13.814;2023-07-31T02:13:55;14.90;99.90
49242;DHT22;35079;52.704;13.814;2023-07-31T02:16:21;14.80;99.90
49242;DHT22;35079;52.704;13.814;2023-07-31T02:18:47;14.90;99.90
49242;DHT22;35079;52.704;13.814;2023-07-31T02:21:12;14.90;99.90
49242;DHT22;35079;52.704;13.814;2023-07-31T02:23:38;15.00;99.90
49242;DHT22;35079;52.704;13.814;2023-07-31T02:26:03;15.10;99.90
49242;DHT22;35079;52.704;13.814;2023-07-31T02:28:29;14.90;99.90
49242;DHT22;35079;52.704;13.814;2023-07-31T02:30:55;15.00;99.90
49242;DHT22;35079;52.704;13.814;2023-07-31T02:33:20;15.00;99.90
49242;DHT22;35079;52.704;13.814;2023-07-31T02:35:46;15.00;99.90
49242;DHT22;35079;52.704;13.814;2023-07-31T02:38:12;15.00;99.90
49242;DHT22;35079;52.704;13.814;2023-07-31T02:40:38;14.90;99.90
49242;DHT22;35079;52.704;13.814;2023-07-31T02:43:04;14.80;99.90
49242;DHT22;35079;52.704;13.814;2023-07-31T02:45:29;14.80;99.90
49242;DHT22;35079;52.704;13.814;2023-07-31T02:47:55;14.90;99.90
49242;DHT22;35079;52.704;13.814;2023-07-31T02:50:21;14.90;99.90
49242;DHT22;35079;52.704;13.814;2023-07-31T02:52:46;14.90;99.90
49242;DHT22;35079;52.704;13.814;2023-07-31T02:55:12;14.80;99.90
49242;DHT22;35079;52.704;13.814;2023-07-31T02:57:37;14.80;99.90
49242;DHT22;35079;52.704;13.814;2023-07-31T03:00:03;15.00;99.90
49242;DHT22;35079;52.704;13.814;2023-07-31T03:02:31;14.90;99.90
49242;DHT22;35079;52.704;13.814;2023-07-31T03:04:57;14.80;99.90
49242;DHT22;35079;52.704;13.814;2023-07-31T03:07:23;14.80;99.90
49242;DHT22;35079;52.704;13.814;2023-07-31T03:09:48;14.70;99.90
49242;DHT22;35079;52.704;13.814;2023-07-31T03:12:14;14.80;99.90
49242;DHT22;35079;52.704;13.814;2023-07-31T03:14:40;14.90;99.90
49242;DHT22;35079;52.704;13.814;2023-07-31T03:17:06;14.90;99.90
49242;DHT22;35079;52.704;13.814;2023-07-31T03:19:32;15.00;99.90
49242;DHT22;35079;52.704;13.814;2023-07-31T03:21:58;15.00;99.90
49242;DHT22;35079;52.704;13.814;2023-07-31T03:24:24;15.00;99.90
49242;DHT22;35079;52.704;13.814;2023-07-31T03:26:50;15.00;99.90
49242;DHT22;35079;52.704;13.814;2023-07-31T03:29:16;15.00;99.90
49242;DHT22;35079;52.704;13.814;2023-07-31T03:31:41;14.90;99.90
49242;DHT22;35079;52.704;13.814;2023-07-31T03:34:07;14.90;99.90
49242;DHT22;35079;52.704;13.814;2023-07-31T03:36:32;15.00;99.90
49242;DHT22;35079;52.704;13.814;2023-07-31T03:38:58;14.90;99.90
49242;DHT22;35079;52.704;13.814;2023-07-31T03:41:24;15.00;99.90
49242;DHT22;35079;52.704;13.814;2023-07-31T03:43:51;15.00;99.90
49242;DHT22;35079;52.704;13.814;2023-07-31T03:46:22;15.00;99.90
49242;DHT22;35079;52.704;13.814;2023-07-31T03:48:48;15.00;99.90
49242;DHT22;35079;52.704;13.814;2023-07-31T03:51:13;15.10;99.90
49242;DHT22;35079;52.704;13.814;2023-07-31T03:53:39;15.10;99.90
49242;DHT22;35079;52.704;13.814;2023-07-31T03:56:05;15.20;99.90
49242;DHT22;35079;52.704;13.814;2023-07-31T03:58:30;15.20;99.90
49242;DHT22;35079;52.704;13.814;2023-07-31T04:00:56;15.10;99.90
49242;DHT22;35079;52.704;13.814;2023-07-31T04:03:21;15.10;99.90
49242;DHT22;35079;52.704;13.814;2023-07-31T04:05:47;15.20;99.90
49242;DHT22;35079;52.704;13.814;2023-07-31T04:08:13;15.20;99.90
49242;DHT22;35079;52.704;13.814;2023-07-31T04:10:38;15.10;99.90
49242;DHT22;35079;52.704;13.814;2023-07-31T04:13:04;15.10;99.90
49242;DHT22;35079;52.704;13.814;2023-07-31T04:15:29;15.00;99.90
49242;DHT22;35079;52.704;13.814;2023-07-31T04:17:55;15.10;99.90
49242;DHT22;35079;52.704;13.814;2023-07-31T04:20:20;15.20;99.90
49242;DHT22;35079;52.704;13.814;2023-07-31T04:22:46;15.10;99.90
49242;DHT22;35079;52.704;13.814;2023-07-31T04:25:12;15.20;99.90
49242;DHT22;35079;52.704;13.814;2023-07-31T04:27:37;15.20;99.90
49242;DHT22;35079;52.704;13.814;2023-07-31T04:30:03;15.30;99.90
49242;DHT22;35079;52.704;13.814;2023-07-31T04:32:29;15.30;99.90
49242;DHT22;35079;52.704;13.814;2023-07-31T04:34:55;15.30;99.90
49242;DHT22;35079;52.704;13.814;2023-07-31T04:37:20;15.40;99.90
49242;DHT22;35079;52.704;13.814;2023-07-31T04:39:46;15.40;99.90
49242;DHT22;35079;52.704;13.814;2023-07-31T04:42:12;15.40;99.90
49242;DHT22;35079;52.704;13.814;2023-07-31T04:44:37;15.50;99.90
49242;DHT22;35079;52.704;13.814;2023-07-31T04:47:03;15.50;99.90
49242;DHT22;35079;52.704;13.814;2023-07-31T04:49:29;15.50;99.90
49242;DHT22;35079;52.704;13.814;2023-07-31T04:51:54;15.50;99.90
49242;DHT22;35079;52.704;13.814;2023-07-31T04:54:20;15.60;99.90
49242;DHT22;35079;52.704;13.814;2023-07-31T04:56:46;15.50;99.90
49242;DHT22;35079;52.704;13.814;2023-07-31T04:59:12;15.60;99.90
49242;DHT22;35079;52.704;13.814;2023-07-31T05:01:38;15.60;99.90
49242;DHT22;35079;52.704;13.814;2023-07-31T05:04:03;15.60;99.90
49242;DHT22;35079;52.704;13.814;2023-07-31T05:06:29;15.60;99.90
49242;DHT22;35079;52.704;13.814;2023-07-31T05:08:55;15.70;99.90
49242;DHT22;35079;52.704;13.814;2023-07-31T05:11:20;15.70;99.90
49242;DHT22;35079;52.704;13.814;2023-07-31T05:13:46;15.70;99.90
49242;DHT22;35079;52.704;13.814;2023-07-31T05:16:11;15.80;99.90
49242;DHT22;35079;52.704;13.814;2023-07-31T05:18:37;15.80;99.90
49242;DHT22;35079;52.704;13.814;2023-07-31T05:21:04;15.90;99.90
49242;DHT22;35079;52.704;13.814;2023-07-31T05:23:29;15.90;99.90
49242;DHT22;35079;52.704;13.814;2023-07-31T05:26:05;15.80;99.90
49242;DHT22;35079;52.704;13.814;2023-07-31T05:28:31;15.80;99.90
49242;DHT22;35079;52.704;13.814;2023-07-31T05:31:01;15.80;99.90
49242;DHT22;35079;52.704;13.814;2023-07-31T05:33:27;15.90;99.90
49242;DHT22;35079;52.704;13.814;2023-07-31T05:35:53;16.00;99.90
49242;DHT22;35079;52.704;13.814;2023-07-31T05:38:18;15.90;99.90
49242;DHT22;35079;52.704;13.814;2023-07-31T05:40:44;15.90;99.90
49242;DHT22;35079;52.704;13.814;2023-07-31T05:43:09;16.10;99.90
49242;DHT22;35079;52.704;13.814;2023-07-31T05:45:35;16.00;99.90
49242;DHT22;35079;52.704;13.814;2023-07-31T05:48:02;16.00;99.90
49242;DHT22;35079;52.704;13.814;2023-07-31T05:50:28;16.00;99.90
49242;DHT22;35079;52.704;13.814;2023-07-31T05:52:53;16.10;99.90
49242;DHT22;35079;52.704;13.814;2023-07-31T05:55:19;16.20;99.90
49242;DHT22;35079;52.704;13.814;2023-07-31T05:57:45;16.30;99.90
49242;DHT22;35079;52.704;13.814;2023-07-31T06:00:12;16.30;99.90
49242;DHT22;35079;52.704;13.814;2023-07-31T06:02:38;16.30;99.90
49242;DHT22;35079;52.704;13.814;2023-07-31T06:05:04;16.30;99.90
49242;DHT22;35079;52.704;13.814;2023-07-31T06:07:31;16.30;99.90
49242;DHT22;35079;52.704;13.814;2023-07-31T06:09:57;16.40;99.90
49242;DHT22;35079;52.704;13.814;2023-07-31T06:12:28;16.40;99.90
49242;DHT22;35079;52.704;13.814;2023-07-31T06:14:54;16.30;99.90
49242;DHT22;35079;52.704;13.814;2023-07-31T06:17:20;16.40;99.90
49242;DHT22;35079;52.704;13.814;2023-07-31T06:19:46;16.40;99.90
49242;DHT22;35079;52.704;13.814;2023-07-31T06:22:12;16.40;99.90
49242;DHT22;35079;52.704;13.814;2023-07-31T06:24:38;16.40;99.90
49242;DHT22;35079;52.704;13.814;2023-07-31T06:27:04;16.40;99.90
49242;DHT22;35079;52.704;13.814;2023-07-31T06:29:30;16.40;99.90
49242;DHT22;35079;52.704;13.814;2023-07-31T06:31:56;16.50;99.90
49242;DHT22;35079;52.704;13.814;2023-07-31T06:34:22;16.50;99.90
49242;DHT22;35079;52.704;13.814;2023-07-31T06:36:47;16.50;99.90
49242;DHT22;35079;52.704;13.814;2023-07-31T06:39:13;16.60;99.90
49242;DHT22;35079;52.704;13.814;2023-07-31T06:41:39;16.70;99.90
49242;DHT22;35079;52.704;13.814;2023-07-31T06:44:04;16.80;99.90
49242;DHT22;35079;52.704;13.814;2023-07-31T06:46:30;16.80;99.90
49242;DHT22;35079;52.704;13.814;2023-07-31T06:48:55;16.80;99.90
49242;DHT22;35079;52.704;13.814;2023-07-31T06:51:21;16.90;99.90
49242;DHT22;35079;52.704;13.814;2023-07-31T06:53:47;17.10;99.90
49242;DHT22;35079;52.704;13.814;2023-07-31T06:56:12;17.10;99.90
49242;DHT22;35079;52.704;13.814;2023-07-31T06:58:39;17.10;99.90
49242;DHT22;35079;52.704;13.814;2023-07-31T07:01:04;17.10;99.90
49242;DHT22;35079;52.704;13.814;2023-07-31T07:03:30;17.10;99.90
49242;DHT22;35079;52.704;13.814;2023-07-31T07:05:56;17.00;99.90
49242;DHT22;35079;52.704;13.814;2023-07-31T07:08:21;17.00;99.90
49242;DHT22;35079;52.704;13.814;2023-07-31T07:10:47;17.00;99.90
49242;DHT22;35079;52.704;13.814;2023-07-31T07:13:13;17.10;99.90
49242;DHT22;35079;52.704;13.814;2023-07-31T07:15:39;17.10;99.90
49242;DHT22;35079;52.704;13.814;2023-07-31T07:18:04;17.10;99.90
49242;DHT22;35079;52.704;13.814;2023-07-31T07:20:30;17.10;99.90
49242;DHT22;35079;52.704;13.814;2023-07-31T07:22:56;17.20;99.90
49242;DHT22;35079;52.704;13.814;2023-07-31T07:25:22;17.10;99.90
49242;DHT22;35079;52.704;13.814;2023-07-31T07:27:47;17.10;99.90
49242;DHT22;35079;52.704;13.814;2023-07-31T07:30:13;17.20;99.90
49242;DHT22;35079;52.704;13.814;2023-07-31T07:32:39;17.10;99.90
49242;DHT22;35079;52.704;13.814;2023-07-31T07:35:06;17.10;99.90
49242;DHT22;35079;52.704;13.814;2023-07-31T07:37:32;17.20;99.90
49242;DHT22;35079;52.704;13.814;2023-07-31T07:39:57;17.20;99.90
49242;DHT22;35079;52.704;13.814;2023-07-31T07:42:23;17.30;99.90
49242;DHT22;35079;52.704;13.814;2023-07-31T07:44:49;17.30;99.90
49242;DHT22;35079;52.704;13.814;2023-07-31T07:47:14;17.50;99.90
49242;DHT22;35079;52.704;13.814;2023-07-31T07:49:40;17.50;99.90
49242;DHT22;35079;52.704;13.814;2023-07-31T07:52:06;17.60;99.90
49242;DHT22;35079;52.704;13.814;2023-07-31T07:54:31;17.60;99.90
49242;DHT22;35079;52.704;13.814;2023-07-31T07:56:59;17.70;99.90
49242;DHT22;35079;52.704;13.814;2023-07-31T07:59:24;17.70;99.90
49242;DHT22;35079;52.704;13.814;2023-07-31T08:01:50;17.80;99.90
49242;DHT22;35079;52.704;13.814;2023-07-31T08:04:16;17.80;99.90
49242;DHT22;35079;52.704;13.814;2023-07-31T08:06:41;17.70;99.90
49242;DHT22;35079;52.704;13.814;2023-07-31T08:09:07;17.70;99.90
49242;DHT22;35079;52.704;13.814;2023-07-31T08:11:34;17.60;99.90
49242;DHT22;35079;52.704;13.814;2023-07-31T08:14:00;17.40;99.90
49242;DHT22;35079;52.704;13.814;2023-07-31T08:16:26;17.50;99.90
49242;DHT22;35079;52.704;13.814;2023-07-31T08:18:51;17.70;99.90
49242;DHT22;35079;52.704;13.814;2023-07-31T08:21:17;17.70;99.90
49242;DHT22;35079;52.704;13.814;2023-07-31T08:23:42;17.90;99.90
49242;DHT22;35079;52.704;13.814;2023-07-31T08:26:14;17.90;99.90
49242;DHT22;35079;52.704;13.814;2023-07-31T08:28:39;18.00;99.90
49242;DHT22;35079;52.704;13.814;2023-07-31T08:31:05;18.00;99.90
49242;DHT22;35079;52.704;13.814;2023-07-31T08:33:31;18.10;99.90
49242;DHT22;35079;52.704;13.814;2023-07-31T08:35:57;18.00;99.90
49242;DHT22;35079;52.704;13.814;2023-07-31T08:38:28;18.00;99.90
49242;DHT22;35079;52.704;13.814;2023-07-31T08:40:57;18.00;99.90
49242;DHT22;35079;52.704;13.814;2023-07-31T08:43:25;18.00;99.90
49242;DHT22;35079;52.704;13.814;2023-07-31T08:45:52;18.10;99.90
49242;DHT22;35079;52.704;13.814;2023-07-31T08:48:20;18.00;99.90
49242;DHT22;35079;52.704;13.814;2023-07-31T08:50:46;18.00;99.90
49242;DHT22;35079;52.704;13.814;2023-07-31T08:53:12;18.10;99.90
49242;DHT22;35079;52.704;13.814;2023-07-31T08:55:38;18.20;99.90
49242;DHT22;35079;52.704;13.814;2023-07-31T08:58:04;18.30;99.90
49242;DHT22;35079;52.704;13.814;2023-07-31T09:00:34;18.40;99.90
49242;DHT22;35079;52.704;13.814;2023-07-31T09:03:09;18.60;99.90
49242;DHT22;35079;52.704;13.814;2023-07-31T09:05:38;18.50;99.90
49242;DHT22;35079;52.704;13.814;2023-07-31T09:08:08;18.50;99.90
49242;DHT22;35079;52.704;13.814;2023-07-31T09:10:35;18.70;99.90
49242;DHT22;35079;52.704;13.814;2023-07-31T09:13:01;18.80;99.90
49242;DHT22;35079;52.704;13.814;2023-07-31T09:15:27;18.90;99.90
49242;DHT22;35079;52.704;13.814;2023-07-31T09:18:01;18.90;99.90
49242;DHT22;35079;52.704;13.814;2023-07-31T09:20:27;18.80;99.90
49242;DHT22;35079;52.704;13.814;2023-07-31T09:22:53;18.60;99.90
49242;DHT22;35079;52.704;13.814;2023-07-31T09:30:13;18.30;99.90
49242;DHT22;35079;52.704;13.814;2023-07-31T09:32:39;18.20;99.90
49242;DHT22;35079;52.704;13.814;2023-07-31T09:37:55;18.60;99.90
49242;DHT22;35079;52.704;13.814;2023-07-31T09:40:43;18.90;99.90
49242;DHT22;35079;52.704;13.814;2023-07-31T09:43:11;19.10;99.90
49242;DHT22;35079;52.704;13.814;2023-07-31T09:45:39;19.40;99.90
49242;DHT22;35079;52.704;13.814;2023-07-31T09:48:09;19.70;99.90
49242;DHT22;35079;52.704;13.814;2023-07-31T09:50:37;19.90;99.90
49242;DHT22;35079;52.704;13.814;2023-07-31T09:53:03;19.90;99.90
49242;DHT22;35079;52.704;13.814;2023-07-31T09:55:29;19.70;99.90
49242;DHT22;35079;52.704;13.814;2023-07-31T09:57:57;19.50;99.90
49242;DHT22;35079;52.704;13.814;2023-07-31T10:00:23;19.30;99.90
49242;DHT22;35079;52.704;13.814;2023-07-31T10:02:53;19.20;99.90
49242;DHT22;35079;52.704;13.814;2023-07-31T10:05:19;19.10;99.90
49242;DHT22;35079;52.704;13.814;2023-07-31T10:07:52;19.00;99.90
49242;DHT22;35079;52.704;13.814;2023-07-31T10:10:21;19.00;99.90
49242;DHT22;35079;52.704;13.814;2023-07-31T10:12:49;18.60;99.90
49242;DHT22;35079;52.704;13.814;2023-07-31T10:15:18;18.60;99.90
49242;DHT22;35079;52.704;13.814;2023-07-31T10:17:44;18.60;99.90
49242;DHT22;35079;52.704;13.814;2023-07-31T10:20:11;18.60;99.90
49242;DHT22;35079;52.704;13.814;2023-07-31T10:22:38;18.40;99.90
49242;DHT22;35079;52.704;13.814;2023-07-31T10:25:05;18.40;99.90
49242;DHT22;35079;52.704;13.814;2023-07-31T10:27:43;18.30;99.90
49242;DHT22;35079;52.704;13.814;2023-07-31T10:30:16;18.40;99.90
49242;DHT22;35079;52.704;13.814;2023-07-31T10:32:44;18.40;99.90
49242;DHT22;35079;52.704;13.814;2023-07-31T10:35:11;18.40;99.90
49242;DHT22;35079;52.704;13.814;2023-07-31T10:37:39;18.50;99.90
49242;DHT22;35079;52.704;13.814;2023-07-31T10:40:12;18.70;99.90
49242;DHT22;35079;52.704;13.814;2023-07-31T10:45:30;18.80;99.90
49242;DHT22;35079;52.704;13.814;2023-07-31T10:48:03;18.80;99.90
49242;DHT22;35079;52.704;13.814;2023-07-31T10:50:31;18.90;99.90
49242;DHT22;35079;52.704;13.814;2023-07-31T10:52:59;18.90;99.90
49242;DHT22;35079;52.704;13.814;2023-07-31T10:55:31;19.00;99.90
49242;DHT22;35079;52.704;13.814;2023-07-31T10:58:08;18.90;99.90
49242;DHT22;35079;52.704;13.814;2023-07-31T11:00:40;18.90;99.90
49242;DHT22;35079;52.704;13.814;2023-07-31T11:03:15;18.90;99.90
49242;DHT22;35079;52.704;13.814;2023-07-31T11:08:12;18.70;99.90
49242;DHT22;35079;52.704;13.814;2023-07-31T11:10:37;18.60;99.90
49242;DHT22;35079;52.704;13.814;2023-07-31T11:13:04;18.50;99.90
49242;DHT22;35079;52.704;13.814;2023-07-31T11:15:30;18.40;99.90
49242;DHT22;35079;52.704;13.814;2023-07-31T11:17:56;18.40;99.90
49242;DHT22;35079;52.704;13.814;2023-07-31T11:20:27;18.50;99.90
49242;DHT22;35079;52.704;13.814;2023-07-31T11:22:52;18.70;99.90
49242;DHT22;35079;52.704;13.814;2023-07-31T11:25:18;18.90;99.90
49242;DHT22;35079;52.704;13.814;2023-07-31T11:27:44;19.10;99.90
49242;DHT22;35079;52.704;13.814;2023-07-31T11:30:10;19.20;99.90
49242;DHT22;35079;52.704;13.814;2023-07-31T11:32:37;19.40;99.90
49242;DHT22;35079;52.704;13.814;2023-07-31T11:35:03;19.70;99.90
49242;DHT22;35079;52.704;13.814;2023-07-31T11:37:44;20.00;99.90
49242;DHT22;35079;52.704;13.814;2023-07-31T11:40:10;21.20;99.90
49242;DHT22;35079;52.704;13.814;2023-07-31T11:42:36;21.30;99.90
49242;DHT22;35079;52.704;13.814;2023-07-31T11:45:06;21.20;99.90
49242;DHT22;35079;52.704;13.814;2023-07-31T11:47:36;21.00;99.90
49242;DHT22;35079;52.704;13.814;2023-07-31T11:50:03;20.70;99.90
49242;DHT22;35079;52.704;13.814;2023-07-31T11:52:34;20.60;99.90
49242;DHT22;35079;52.704;13.814;2023-07-31T11:55:02;20.40;99.90
49242;DHT22;35079;52.704;13.814;2023-07-31T11:57:28;20.50;99.90
49242;DHT22;35079;52.704;13.814;2023-07-31T11:59:55;20.70;99.90
49242;DHT22;35079;52.704;13.814;2023-07-31T12:02:21;20.70;99.90
49242;DHT22;35079;52.704;13.814;2023-07-31T12:04:48;20.60;99.90
49242;DHT22;35079;52.704;13.814;2023-07-31T12:07:13;20.40;99.90
49242;DHT22;35079;52.704;13.814;2023-07-31T12:12:23;20.70;99.90
49242;DHT22;35079;52.704;13.814;2023-07-31T12:14:48;21.80;99.90
49242;DHT22;35079;52.704;13.814;2023-07-31T12:17:16;22.80;99.90
49242;DHT22;35079;52.704;13.814;2023-07-31T12:19:42;22.90;99.90
49242;DHT22;35079;52.704;13.814;2023-07-31T12:22:14;22.90;99.90
49242;DHT22;35079;52.704;13.814;2023-07-31T12:24:42;22.50;99.90
49242;DHT22;35079;52.704;13.814;2023-07-31T12:27:14;22.00;99.90
49242;DHT22;35079;52.704;13.814;2023-07-31T12:29:42;21.50;99.90
49242;DHT22;35079;52.704;13.814;2023-07-31T12:32:39;21.20;99.90
49242;DHT22;35079;52.704;13.814;2023-07-31T12:35:06;20.90;99.90
49242;DHT22;35079;52.704;13.814;2023-07-31T12:37:33;20.90;99.90
49242;DHT22;35079;52.704;13.814;2023-07-31T12:39:58;20.90;99.90
49242;DHT22;35079;52.704;13.814;2023-07-31T12:42:30;20.80;99.90
49242;DHT22;35079;52.704;13.814;2023-07-31T12:44:56;20.60;99.90
49242;DHT22;35079;52.704;13.814;2023-07-31T12:47:22;20.50;99.90
49242;DHT22;35079;52.704;13.814;2023-07-31T12:49:48;20.20;99.90
49242;DHT22;35079;52.704;13.814;2023-07-31T12:52:13;20.00;99.90
49242;DHT22;35079;52.704;13.814;2023-07-31T12:54:39;19.90;99.90
49242;DHT22;35079;52.704;13.814;2023-07-31T12:57:05;19.80;99.90
49242;DHT22;35079;52.704;13.814;2023-07-31T12:59:30;19.50;99.90
49242;DHT22;35079;52.704;13.814;2023-07-31T13:01:56;19.40;99.90
49242;DHT22;35079;52.704;13.814;2023-07-31T13:04:21;19.30;99.90
49242;DHT22;35079;52.704;13.814;2023-07-31T13:06:47;19.50;99.90
49242;DHT22;35079;52.704;13.814;2023-07-31T13:09:13;19.60;99.90
49242;DHT22;35079;52.704;13.814;2023-07-31T13:11:38;19.70;99.90
49242;DHT22;35079;52.704;13.814;2023-07-31T13:14:04;19.70;99.90
49242;DHT22;35079;52.704;13.814;2023-07-31T13:16:30;19.60;99.90
49242;DHT22;35079;52.704;13.814;2023-07-31T13:18:55;19.60;99.90
49242;DHT22;35079;52.704;13.814;2023-07-31T13:21:21;19.70;99.90
49242;DHT22;35079;52.704;13.814;2023-07-31T13:23:47;19.90;99.90
49242;DHT22;35079;52.704;13.814;2023-07-31T13:26:13;20.10;99.90
49242;DHT22;35079;52.704;13.814;2023-07-31T13:28:38;20.00;99.90
49242;DHT22;35079;52.704;13.814;2023-07-31T13:31:04;20.00;99.90
49242;DHT22;35079;52.704;13.814;2023-07-31T13:33:30;20.00;99.90
49242;DHT22;35079;52.704;13.814;2023-07-31T13:35:56;19.80;99.90
49242;DHT22;35079;52.704;13.814;2023-07-31T13:38:21;19.80;99.90
49242;DHT22;35079;52.704;13.814;2023-07-31T13:40:47;19.70;99.90
49242;DHT22;35079;52.704;13.814;2023-07-31T13:43:13;19.90;99.90
49242;DHT22;35079;52.704;13.814;2023-07-31T13:45:41;20.00;99.90
49242;DHT22;35079;52.704;13.814;2023-07-31T13:48:07;19.90;99.90
49242;DHT22;35079;52.704;13.814;2023-07-31T13:50:33;19.90;99.90
49242;DHT22;35079;52.704;13.814;2023-07-31T13:52:58;19.80;99.90
49242;DHT22;35079;52.704;13.814;2023-07-31T13:55:24;19.70;99.90
49242;DHT22;35079;52.704;13.814;2023-07-31T13:57:49;19.50;99.90
49242;DHT22;35079;52.704;13.814;2023-07-31T14:00:15;19.30;99.90
49242;DHT22;35079;52.704;13.814;2023-07-31T14:02:41;19.50;99.90
49242;DHT22;35079;52.704;13.814;2023-07-31T14:05:07;19.80;99.90
49242;DHT22;35079;52.704;13.814;2023-07-31T14:07:34;20.20;99.90
49242;DHT22;35079;52.704;13.814;2023-07-31T14:10:00;20.60;99.90
49242;DHT22;35079;52.704;13.814;2023-07-31T14:12:26;20.80;99.90
49242;DHT22;35079;52.704;13.814;2023-07-31T14:14:52;20.80;99.90
49242;DHT22;35079;52.704;13.814;2023-07-31T14:17:17;20.70;99.90
49242;DHT22;35079;52.704;13.814;2023-07-31T14:19:43;20.70;99.90
49242;DHT22;35079;52.704;13.814;2023-07-31T14:22:09;20.80;99.90
49242;DHT22;35079;52.704;13.814;2023-07-31T14:24:35;20.90;99.90
49242;DHT22;35079;52.704;13.814;2023-07-31T14:27:00;21.00;99.90
49242;DHT22;35079;52.704;13.814;2023-07-31T14:29:26;20.90;99.90
49242;DHT22;35079;52.704;13.814;2023-07-31T14:31:52;21.00;99.90
49242;DHT22;35079;52.704;13.814;2023-07-31T14:34:17;21.20;99.90
49242;DHT22;35079;52.704;13.814;2023-07-31T14:36:43;21.20;99.90
49242;DHT22;35079;52.704;13.814;2023-07-31T14:39:10;21.30;99.90
49242;DHT22;35079;52.704;13.814;2023-07-31T14:41:35;21.40;99.90
49242;DHT22;35079;52.704;13.814;2023-07-31T14:44:01;21.30;99.90
49242;DHT22;35079;52.704;13.814;2023-07-31T14:46:27;21.10;99.90
49242;DHT22;35079;52.704;13.814;2023-07-31T14:48:52;21.00;99.90
49242;DHT22;35079;52.704;13.814;2023-07-31T14:51:18;20.80;99.90
49242;DHT22;35079;52.704;13.814;2023-07-31T14:53:44;20.70;99.90
49242;DHT22;35079;52.704;13.814;2023-07-31T14:56:10;20.70;99.90
49242;DHT22;35079;52.704;13.814;2023-07-31T14:58:36;20.60;99.90
49242;DHT22;35079;52.704;13.814;2023-07-31T15:01:02;20.50;99.90
49242;DHT22;35079;52.704;13.814;2023-07-31T15:03:27;20.40;99.90
49242;DHT22;35079;52.704;13.814;2023-07-31T15:05:53;20.50;99.90
49242;DHT22;35079;52.704;13.814;2023-07-31T15:08:18;20.40;99.90
49242;DHT22;35079;52.704;13.814;2023-07-31T15:10:44;20.40;99.90
49242;DHT22;35079;52.704;13.814;2023-07-31T15:13:10;20.40;99.90
49242;DHT22;35079;52.704;13.814;2023-07-31T15:15:35;20.20;99.90
49242;DHT22;35079;52.704;13.814;2023-07-31T15:18:01;20.20;99.90
49242;DHT22;35079;52.704;13.814;2023-07-31T15:20:29;20.10;99.90
49242;DHT22;35079;52.704;13.814;2023-07-31T15:22:58;20.10;99.90
49242;DHT22;35079;52.704;13.814;2023-07-31T15:25:27;20.00;99.90
49242;DHT22;35079;52.704;13.814;2023-07-31T15:27:56;20.00;99.90
49242;DHT22;35079;52.704;13.814;2023-07-31T15:30:22;20.00;99.90
49242;DHT22;35079;52.704;13.814;2023-07-31T15:32:50;19.90;99.90
49242;DHT22;35079;52.704;13.814;2023-07-31T15:35:16;19.80;99.90